首页
METAR-TAF:

METAR-TAF

机场 :

傑克遜斯國際機場

莫尔兹比港, 巴布亞新幾內亞

纬度: 09-26S, 经度: 147-13E, 海拔: 38米

当前天气观测

该预报发布于1小时和11分钟前的23:00 UTC
风速3节,风向多变
温度 27°C
湿度 89%
气压 1012 hPa
能见度10公里或以上
散云层高于5000英尺
烟, 霾

METAR: AYPY 162300Z VRB03KT 9999 FU HZ SCT050 27/25 Q1012

时间: 10:11 (00:11 UTC)

预报

该预报发布于20小时和6分钟前的04:05 UTC
预报有效从16日的 06点(UTC)到 17日的 06点(UTC)
风速8节,风向
能见度10公里或以上
少量云层高于2000英尺
多云层高于14000英尺
从 16日的 0900点(UTC)
风速6节,风向
能见度10公里或以上
散云层高于3500英尺
多云层高于14000英尺

TAF: AYPY 160405Z 1606/1706 17008KT 9999 FEW020 BKN140 FM160900 17006KT 9999 SCT035 BKN140

超过4000个机场的气象观测和天气预报(METAR&TAF报告)。

可查询的气象台以黄色和红色小点在地图上表示。

将鼠标移到小点上方,可查看气象台名称。

然后点击查看天气观测和预报。

如需切换地图:点击带黑十字的绿色按钮放大地图;点击带横线的绿色按钮缩小地图;或者点击绿色箭头查看邻近地区的地图。


METAR-TAF: